Terminal Aerodrome Forecast
Issued by NWS

Home | Current Version | Previous Version | Text Only | Print | Product List | Glossary On
Versions: 1 2 3 4 5 6 7 8 9 10 11 12 13 14 15 16 17 18 19 20 21 22 23 24 25 26 27 28 29 30
000
FTUS45 KSLC 262334
TAFBCE
TAF
KBCE 262334Z 2700/2724 16008KT P6SM SCT090 BKN150
     FM270900 20006KT P6SM VCSH SCT025 BKN060
     FM271200 17007KT 2SM -SHSN SCT009 BKN025
     FM271800 20010G15KT P6SM VCSH SCT025 BKN040=

USA.gov is the U.S. government's official web portal to all federal, state and local government web resources and services.